MSC Splendida — 3FZI8 — position and weather

sailwx.info

Track history (hours):
 
Tides and Currents Weather Stations Pressure Air Temp Water Temp Dewpoint Dewpoint Depression Visibility Wind Speed Wind Dir Waves Ship Positions

MSC Splendida

Last reported at 2018-Jun-23 15:48 UTC. Time now 2018-Jun-24 05:18 UTC.
Position N 31°06' E 122°31'.

Length 333 m; draft 8.6 m.

Type: Ship. MMSI: 357698000.

Date/timePositionNaut miles runAvg speedWind from/ knotsBaromVisibWave heightAir tempDewpointWater temp
2018-Jun-23 15:48N 31°06' E 122°31'615.4
2018-Jun-23 15:24N 31°06' E 122°24'614.6
2018-Jun-23 15:00N 31°07' E 122°17'714.4
2018-Jun-23 14:29N 31°11' E 122°10'613.0
2018-Jun-23 14:00N 31°14' E 122°04'713.1
2018-Jun-23 13:28N 31°15' E 121°55'713.5
2018-Jun-23 12:58N 31°17' E 121°48'2 0.1
2018-Jun-22 20:38N 31°18' E 121°45'214.0
2018-Jun-22 20:30N 31°18' E 121°48'612.1
2018-Jun-22 20:00N 31°16' E 121°54'612.0
2018-Jun-22 19:30N 31°15' E 122°01'1111.5
2018-Jun-22 18:34N 31°10' E 122°12'312.0
2018-Jun-22 18:20N 31°08' E 122°15'412.9
2018-Jun-22 18:00N 31°06' E 122°19'13212.5
2018-Jun-22 07:25N 31°50' E 124°45'  
2018-Jun-19 13:05N 31°05' E 122°31'116.7
2018-Jun-19 13:00N 31°05' E 122°30'815.5
2018-Jun-19 12:28N 31°06' E 122°20'613.3
2018-Jun-19 12:00N 31°09' E 122°14'714.7
2018-Jun-19 11:30N 31°13' E 122°07'714.2
2018-Jun-19 11:00N 31°15' E 121°58'1014.4
2018-Jun-19 10:19N 31°18' E 121°47'3 0.2
2018-Jun-18 18:58N 31°19' E 121°44'610.2
2018-Jun-18 18:21N 31°16' E 121°51'410.2
2018-Jun-18 18:00N 31°16' E 121°55'611.9
2018-Jun-18 17:30N 31°14' E 122°02'611.6
2018-Jun-18 16:56N 31°12' E 122°09'512.7
2018-Jun-18 16:30N 31°09' E 122°14'711.7
2018-Jun-18 15:55N 31°06' E 122°22'7 9.4
2018-Jun-18 15:09N 31°07' E 122°30'310.5
2018-Jun-18 14:51N 31°07' E 122°34'512.1
2018-Jun-18 14:25N 31°07' E 122°40'611.1
2018-Jun-18 13:53N 31°07' E 122°47'2112.9
2018-Jun-18 12:15N 31°14' E 123°10'  
2018-Jun-15 12:48N 31°06' E 122°30'713.8
2018-Jun-15 12:19N 31°06' E 122°23'412.7
2018-Jun-15 12:00N 31°06' E 122°18'714.5
2018-Jun-15 11:30N 31°10' E 122°11'714.3
2018-Jun-15 11:00N 31°14' E 122°04'714.6
2018-Jun-15 10:30N 31°15' E 121°55'714.7
2018-Jun-15 10:00N 31°18' E 121°47'6 0.5
2018-Jun-14 20:28N 31°21' E 121°41'5 9.1
2018-Jun-14 19:57N 31°18' E 121°45'4 8.4
2018-Jun-14 19:30N 31°17' E 121°50'510.7
2018-Jun-14 19:00N 31°16' E 121°55'713.5
2018-Jun-14 18:30N 31°14' E 122°03'7 9.2
2018-Jun-14 17:42N 31°11' E 122°11'2 9.3
2018-Jun-14 17:29N 31°10' E 122°13'510.3
2018-Jun-14 17:00N 31°07' E 122°18'612.4
2018-Jun-14 16:29N 31°07' E 122°25'712.7
2018-Jun-14 15:56N 31°07' E 122°33'511.3
2018-Jun-14 15:30N 31°07' E 122°39'712.1
2018-Jun-14 14:55N 31°07' E 122°47'512.6
2018-Jun-14 14:29N 31°08' E 122°53'  
Track history (hours):
 
Tides and Currents Weather Stations Pressure Air Temp Water Temp Dewpoint Dewpoint Depression Visibility Wind Speed Wind Dir Waves Ship Positions

MSC Splendida

Last reported at 2018-Jun-23 15:48 UTC. Time now 2018-Jun-24 05:18 UTC.
Position N 31°06' E 122°31'.

Length 333 m; draft 8.6 m.

Type: Ship. MMSI: 357698000.

Date/timePositionNaut miles runAvg speedWind from/ knotsBaromVisibWave heightAir tempDewpointWater temp
2018-Jun-23 15:48N 31°06' E 122°31'615.4
2018-Jun-23 15:24N 31°06' E 122°24'614.6
2018-Jun-23 15:00N 31°07' E 122°17'714.4
2018-Jun-23 14:29N 31°11' E 122°10'613.0
2018-Jun-23 14:00N 31°14' E 122°04'713.1
2018-Jun-23 13:28N 31°15' E 121°55'713.5
2018-Jun-23 12:58N 31°17' E 121°48'2 0.1
2018-Jun-22 20:38N 31°18' E 121°45'214.0
2018-Jun-22 20:30N 31°18' E 121°48'612.1
2018-Jun-22 20:00N 31°16' E 121°54'612.0
2018-Jun-22 19:30N 31°15' E 122°01'1111.5
2018-Jun-22 18:34N 31°10' E 122°12'312.0
2018-Jun-22 18:20N 31°08' E 122°15'412.9
2018-Jun-22 18:00N 31°06' E 122°19'13212.5
2018-Jun-22 07:25N 31°50' E 124°45'  
2018-Jun-19 13:05N 31°05' E 122°31'116.7
2018-Jun-19 13:00N 31°05' E 122°30'815.5
2018-Jun-19 12:28N 31°06' E 122°20'613.3
2018-Jun-19 12:00N 31°09' E 122°14'714.7
2018-Jun-19 11:30N 31°13' E 122°07'714.2
2018-Jun-19 11:00N 31°15' E 121°58'1014.4
2018-Jun-19 10:19N 31°18' E 121°47'3 0.2
2018-Jun-18 18:58N 31°19' E 121°44'610.2
2018-Jun-18 18:21N 31°16' E 121°51'410.2
2018-Jun-18 18:00N 31°16' E 121°55'611.9
2018-Jun-18 17:30N 31°14' E 122°02'611.6
2018-Jun-18 16:56N 31°12' E 122°09'512.7
2018-Jun-18 16:30N 31°09' E 122°14'711.7
2018-Jun-18 15:55N 31°06' E 122°22'7 9.4
2018-Jun-18 15:09N 31°07' E 122°30'310.5
2018-Jun-18 14:51N 31°07' E 122°34'512.1
2018-Jun-18 14:25N 31°07' E 122°40'611.1
2018-Jun-18 13:53N 31°07' E 122°47'2112.9
2018-Jun-18 12:15N 31°14' E 123°10'  
2018-Jun-15 12:48N 31°06' E 122°30'713.8
2018-Jun-15 12:19N 31°06' E 122°23'412.7
2018-Jun-15 12:00N 31°06' E 122°18'714.5
2018-Jun-15 11:30N 31°10' E 122°11'714.3
2018-Jun-15 11:00N 31°14' E 122°04'714.6
2018-Jun-15 10:30N 31°15' E 121°55'714.7
2018-Jun-15 10:00N 31°18' E 121°47'6 0.5
2018-Jun-14 20:28N 31°21' E 121°41'5 9.1
2018-Jun-14 19:57N 31°18' E 121°45'4 8.4
2018-Jun-14 19:30N 31°17' E 121°50'510.7
2018-Jun-14 19:00N 31°16' E 121°55'713.5
2018-Jun-14 18:30N 31°14' E 122°03'7 9.2
2018-Jun-14 17:42N 31°11' E 122°11'2 9.3
2018-Jun-14 17:29N 31°10' E 122°13'510.3
2018-Jun-14 17:00N 31°07' E 122°18'612.4
2018-Jun-14 16:29N 31°07' E 122°25'712.7
2018-Jun-14 15:56N 31°07' E 122°33'511.3
2018-Jun-14 15:30N 31°07' E 122°39'712.1
2018-Jun-14 14:55N 31°07' E 122°47'512.6
2018-Jun-14 14:29N 31°08' E 122°53'  

Dump ship's entire track history